Time;durP1;ratioP1;P1;durP2;ratioP2;P2;SDS_P1;SDS_P2;PMS_P1;PMS_P2;Temp;Humidity;BMP_temperature;BMP_pressure;BME280_temperature;BME280_humidity;BME280_pressure;Samples;Min_cycle;Max_cycle;Signal;HPM_P1;HPM_P2
2022/08/13 00:02:17;;;;;;;5.63;3.00;;;;;;;15.16;73.04;101444.69;10412711;28;20477;-77
2022/08/13 00:07:18;;;;;;;4.15;2.70;;;;;;;15.12;71.92;101438.41;10442685;28;20128;-76
2022/08/13 00:17:41;;;;;;;6.72;2.90;;;;;;;15.17;67.91;101436.81;10415349;28;20037;-75
2022/08/13 00:22:41;;;;;;;4.30;2.40;;;;;;;15.21;68.51;101441.38;10426945;28;20033;-76
2022/08/13 00:27:47;;;;;;;5.95;3.17;;;;;;;15.24;67.39;101445.88;10442657;28;20083;-75
2022/08/13 00:32:47;;;;;;;8.45;3.08;;;;;;;15.16;66.89;101436.78;10426862;28;20029;-76
2022/08/13 00:37:48;;;;;;;7.60;3.05;;;;;;;15.12;68.06;101438.41;10442952;28;20060;-75
2022/08/13 00:42:50;;;;;;;5.55;3.60;;;;;;;15.02;69.91;101434.53;10442329;28;20025;-75
2022/08/13 00:53:18;;;;;;;5.80;3.15;;;;;;;14.80;71.63;101432.78;10442341;28;20483;-75
2022/08/13 00:58:19;;;;;;;5.25;2.78;;;;;;;14.71;72.02;101437.69;10442115;28;20029;-75
2022/08/13 01:03:20;;;;;;;8.37;3.60;;;;;;;14.56;73.33;101437.94;10442350;28;20037;-75
2022/08/13 01:08:20;;;;;;;4.85;3.45;;;;;;;14.44;73.85;101436.59;10422873;28;20041;-75
2022/08/13 01:13:25;;;;;;;6.30;3.30;;;;;;;14.37;74.13;101434.56;10424368;28;20073;-75
2022/08/13 01:18:26;;;;;;;5.25;3.53;;;;;;;14.26;75.11;101438.47;10408569;28;20056;-75
2022/08/13 01:23:28;;;;;;;6.32;3.25;;;;;;;14.23;75.88;101428.72;10424550;28;20504;-75
2022/08/13 01:28:28;;;;;;;5.15;3.78;;;;;;;14.13;76.04;101437.97;10441227;28;20123;-75
2022/08/13 01:33:29;;;;;;;6.22;4.15;;;;;;;14.07;76.00;101437.72;10441060;28;20045;-75
2022/08/13 01:38:30;;;;;;;5.68;4.10;;;;;;;13.99;76.00;101437.38;10421570;28;20037;-75
2022/08/13 01:43:30;;;;;;;7.40;3.63;;;;;;;14.00;75.75;101441.78;10422714;28;20110;-75
2022/08/13 01:53:55;;;;;;;8.88;3.25;;;;;;;13.83;74.13;101438.44;10440054;28;20056;-75
2022/08/13 01:58:56;;;;;;;;;;;;;;;13.79;74.48;101439.16;10437210;28;20040;-75
2022/08/13 02:03:57;;;;;;;6.32;2.90;;;;;;;13.81;74.84;101434.84;10454795;28;19937;-76
2022/08/13 02:08:59;;;;;;;6.25;3.17;;;;;;;13.88;74.63;101436.91;10421397;28;20059;-75
2022/08/13 02:14:03;;;;;;;9.02;3.10;;;;;;;13.84;74.50;101436.72;10437385;28;20033;-75
2022/08/13 02:19:04;;;;;;;12.43;3.33;;;;;;;13.80;74.40;101438.31;10419957;28;20037;-75
2022/08/13 02:24:13;;;;;;;5.90;3.65;;;;;;;13.66;75.08;101437.69;10397108;28;20432;-75
2022/08/13 02:29:14;;;;;;;7.05;4.55;;;;;;;13.61;77.62;101436.59;10380547;28;20048;-76
2022/08/13 02:34:14;;;;;;;6.50;4.43;;;;;;;13.51;78.76;101437.94;10411924;28;20040;-75
2022/08/13 02:39:15;;;;;;;7.88;4.90;;;;;;;13.36;78.71;101435.47;10411103;28;20116;-75
2022/08/13 02:44:16;;;;;;;27.10;5.60;;;;;;;13.30;79.71;101429.94;10396662;28;20465;-75
2022/08/13 02:49:17;;;;;;;4.75;3.97;;;;;;;13.25;80.45;101426.19;10386024;28;20406;-75
2022/08/13 02:54:20;;;;;;;5.70;3.72;;;;;;;13.24;80.65;101434.91;10397984;28;20047;-75
2022/08/13 02:59:21;;;;;;;8.48;4.00;;;;;;;13.19;80.94;101440.84;10412600;28;20045;-76
2022/08/13 03:04:21;;;;;;;6.43;4.03;;;;;;;13.15;80.45;101436.28;10404488;28;20069;-75
2022/08/13 03:09:22;;;;;;;8.68;3.80;;;;;;;13.12;79.84;101435.25;10404455;28;20108;-75
2022/08/13 03:14:23;;;;;;;12.43;5.53;;;;;;;13.07;79.03;101433.31;10389659;28;20492;-75
2022/08/13 03:19:24;;;;;;;9.40;3.97;;;;;;;13.03;79.84;101439.25;10388811;28;20045;-76
2022/08/13 03:24:26;;;;;;;14.63;4.10;;;;;;;12.96;79.23;101436.25;10406335;28;20033;-75
2022/08/13 03:29:27;;;;;;;7.20;3.40;;;;;;;12.87;79.31;101436.72;10405519;28;20559;-75
2022/08/13 03:34:28;;;;;;;4.73;3.13;;;;;;;12.83;78.61;101434.78;10388774;28;20042;-75
2022/08/13 03:39:29;;;;;;;9.02;3.38;;;;;;;12.71;78.06;101437.72;10405043;28;20068;-75
2022/08/13 03:44:30;;;;;;;5.45;3.45;;;;;;;12.60;78.38;101434.59;10405632;28;20034;-75
2022/08/13 03:49:34;;;;;;;6.35;3.65;;;;;;;12.53;79.92;101438.63;10402655;28;20116;-75
2022/08/13 03:54:35;;;;;;;12.88;5.72;;;;;;;12.46;80.50;101436.53;10405512;28;20140;-75
2022/08/13 03:59:35;;;;;;;6.40;4.32;;;;;;;12.40;80.24;101445.00;10402978;28;20474;-75
2022/08/13 04:04:36;;;;;;;7.72;4.50;;;;;;;12.35;80.25;101449.13;10403901;28;20037;-75
2022/08/13 04:09:36;;;;;;;5.20;2.78;;;;;;;12.33;80.58;101446.41;10403921;28;20045;-76
2022/08/13 04:14:41;;;;;;;12.80;3.10;;;;;;;12.42;80.69;101447.69;10404846;28;20512;-76
2022/08/13 04:19:41;;;;;;;26.35;4.95;;;;;;;12.46;81.94;101454.91;10401997;28;20080;-76
2022/08/13 04:24:42;;;;;;;5.97;2.90;;;;;;;12.54;81.95;101450.03;10385950;28;20033;-76
2022/08/13 04:29:43;;;;;;;5.85;3.10;;;;;;;12.51;80.82;101456.03;10403965;28;20152;-76
2022/08/13 04:34:44;;;;;;;11.98;5.50;;;;;;;12.53;81.18;101462.25;10403573;28;20120;-76
2022/08/13 04:39:44;;;;;;;5.32;3.15;;;;;;;12.57;79.92;101466.81;10401883;28;20041;-75
2022/08/13 04:44:45;;;;;;;7.93;3.35;;;;;;;12.58;80.33;101460.75;10403057;28;20491;-75
2022/08/13 04:49:48;;;;;;;4.65;3.33;;;;;;;12.57;80.35;101452.81;10400076;28;20129;-76
2022/08/13 04:54:48;;;;;;;7.85;3.22;;;;;;;12.61;81.23;101463.53;10402794;28;20045;-76
2022/08/13 04:59:49;;;;;;;7.47;3.60;;;;;;;12.64;80.94;101454.91;10397121;28;20834;-75
2022/08/13 05:04:54;;;;;;;5.72;4.32;;;;;;;12.73;80.00;101467.56;10408995;28;20033;-75
2022/08/13 05:09:54;;;;;;;7.20;3.75;;;;;;;12.82;80.11;101469.75;10365374;28;20473;-74
2022/08/13 05:14:56;;;;;;;6.63;3.58;;;;;;;12.89;79.72;101467.50;10375401;28;20121;-75
2022/08/13 05:19:57;;;;;;;6.97;4.20;;;;;;;12.99;78.14;101460.97;10383809;28;20052;-77
2022/08/13 05:24:57;;;;;;;11.15;3.92;;;;;;;13.05;77.72;101463.88;10420410;28;20432;-77
2022/08/13 05:29:58;;;;;;;5.38;3.33;;;;;;;13.15;76.76;101472.19;10423666;28;20044;-76
2022/08/13 05:34:59;;;;;;;8.88;4.55;;;;;;;13.32;78.94;101472.97;10407750;28;20037;-76
2022/08/13 05:40:00;;;;;;;9.45;3.53;;;;;;;13.40;79.60;101474.22;10389611;28;20493;-77
2022/08/13 05:45:01;;;;;;;8.95;3.53;;;;;;;13.50;78.61;101468.56;10378312;28;20045;-77
2022/08/13 05:50:13;;;;;;;5.03;3.88;;;;;;;14.48;80.12;101466.59;10382958;28;20041;-77
2022/08/13 05:55:13;;;;;;;7.05;3.95;;;;;;;16.64;71.19;101472.75;10400354;28;20034;-76
2022/08/13 06:05:34;;;;;;;8.10;3.38;;;;;;;21.01;55.30;101464.38;10427974;28;20041;-77
2022/08/13 06:10:35;;;;;;;8.00;4.93;;;;;;;21.88;53.50;101474.31;10420963;28;20380;-77
2022/08/13 06:15:35;;;;;;;4.35;2.88;;;;;;;22.96;50.42;101462.75;10421550;28;20033;-77
2022/08/13 06:20:36;;;;;;;5.07;2.80;;;;;;;24.28;47.63;101458.75;10439595;28;20037;-78
2022/08/13 06:25:36;;;;;;;4.17;2.97;;;;;;;25.47;43.12;101454.94;10421211;28;20415;-77
2022/08/13 06:30:37;;;;;;;9.10;3.37;;;;;;;26.52;41.70;101447.97;10439229;28;20055;-77
2022/08/13 06:35:38;;;;;;;6.50;3.15;;;;;;;27.14;40.35;101462.53;10405741;28;20140;-77
2022/08/13 06:40:39;;;;;;;4.18;2.78;;;;;;;27.30;37.50;101467.72;10406695;28;20393;-77
2022/08/13 06:45:41;;;;;;;;;;;;;;;28.04;34.78;101453.22;10420940;28;20583;-77
2022/08/13 06:50:42;;;;;;;5.03;2.80;;;;;;;27.99;39.13;101457.78;10433491;28;19917;-77
2022/08/13 06:55:44;;;;;;;;;;;;;;;28.91;37.04;101458.94;10429657;28;20060;-77
2022/08/13 07:00:45;;;;;;;6.85;3.15;;;;;;;29.28;32.54;101459.06;10425627;28;20414;-76
2022/08/13 07:05:46;;;;;;;6.95;2.97;;;;;;;29.51;34.35;101467.63;10427989;28;20037;-77
2022/08/13 07:10:51;;;;;;;6.40;2.85;;;;;;;30.28;32.54;101468.50;10425590;28;20061;-80
2022/08/13 07:15:52;;;;;;;6.53;2.97;;;;;;;30.68;29.92;101465.72;10427646;28;20143;-79
2022/08/13 07:20:52;;;;;;;5.05;2.70;;;;;;;31.31;29.01;101465.75;10410301;28;20504;-77
2022/08/13 07:25:55;;;;;;;6.60;2.28;;;;;;;32.02;30.00;101458.16;10394819;28;20079;-78
2022/08/13 07:30:56;;;;;;;8.52;3.50;;;;;;;32.65;30.51;101460.53;10407704;28;20067;-78
2022/08/13 07:35:56;;;;;;;3.97;2.30;;;;;;;33.71;25.78;101462.00;10425932;28;20132;-77
2022/08/13 07:40:59;;;;;;;5.93;2.50;;;;;;;34.03;28.08;101461.66;10443787;28;20064;-78
2022/08/13 07:46:07;;;;;;;8.48;3.53;;;;;;;33.36;26.16;101458.84;10425542;28;20087;-78
2022/08/13 07:51:19;;;;;;;6.30;2.95;;;;;;;33.89;27.68;101468.50;10373077;28;20049;-77
2022/08/13 07:56:28;;;;;;;3.83;2.55;;;;;;;34.23;24.44;101467.09;10431049;28;20045;-78
2022/08/13 08:01:29;;;;;;;8.80;2.67;;;;;;;34.85;23.14;101469.88;10411921;28;20501;-76
2022/08/13 08:06:30;;;;;;;6.13;2.00;;;;;;;34.60;22.83;101467.38;10425714;28;20044;-78
2022/08/13 08:16:49;;;;;;;10.07;3.03;;;;;;;34.10;23.78;101472.19;10427576;28;20037;-77
2022/08/13 08:21:51;;;;;;;5.47;2.65;;;;;;;34.48;23.48;101467.94;10425843;28;20512;-78
2022/08/13 08:26:53;;;;;;;8.23;2.72;;;;;;;35.19;22.61;101469.28;10424906;28;20029;-78
2022/08/13 08:31:53;;;;;;;4.90;2.05;;;;;;;35.03;22.11;101470.00;10424509;28;20411;-79
2022/08/13 08:36:55;;;;;;;6.95;3.00;;;;;;;35.11;22.10;101465.09;10440546;28;20057;-79
2022/08/13 08:47:15;;;;;;;9.37;2.13;;;;;;;36.82;20.96;101461.25;10425792;28;20405;-78
2022/08/13 08:52:15;;;;;;;7.60;2.30;;;;;;;37.11;20.05;101467.84;10407342;28;20033;-78
2022/08/13 08:57:18;;;;;;;6.35;1.70;;;;;;;36.71;20.83;101459.97;10404350;28;20068;-77
2022/08/13 09:02:22;;;;;;;8.80;2.75;;;;;;;36.57;22.22;101457.97;10406658;28;20033;-77
2022/08/13 09:07:23;;;;;;;6.32;2.10;;;;;;;37.57;20.44;101458.03;10423137;28;20033;-78
2022/08/13 09:12:26;;;;;;;7.53;1.80;;;;;;;37.78;19.22;101455.94;10423699;28;20447;-78
2022/08/13 09:17:27;;;;;;;8.27;2.00;;;;;;;38.44;18.88;101444.78;10421395;28;20557;-78
2022/08/13 09:22:27;;;;;;;2.35;1.60;;;;;;;38.48;18.20;101443.63;10421163;28;20179;-76
2022/08/13 09:27:30;;;;;;;10.85;8.57;;;;;;;37.57;19.07;101437.09;10439257;28;20063;-76
2022/08/13 09:32:35;;;;;;;5.50;2.17;;;;;;;37.78;19.63;101434.09;10423690;28;20041;-76
2022/08/13 09:37:35;;;;;;;16.52;9.68;;;;;;;38.54;18.56;101432.31;10428220;28;20124;-77
2022/08/13 09:42:44;;;;;;;2.63;2.05;;;;;;;38.20;18.40;101431.63;10433983;28;20041;-76
2022/08/13 09:47:45;;;;;;;5.30;2.90;;;;;;;37.62;18.44;101423.16;10407125;28;20044;-76
2022/08/13 09:52:46;;;;;;;3.25;2.13;;;;;;;37.45;18.26;101410.50;10438949;28;20426;-77
2022/08/13 09:57:51;;;;;;;4.75;1.70;;;;;;;38.28;18.90;101418.38;10421211;28;20044;-79
2022/08/13 10:02:57;;;;;;;5.45;1.73;;;;;;;38.50;18.24;101417.06;10400691;28;20396;-81
2022/08/13 10:07:57;;;;;;;9.00;2.97;;;;;;;39.05;17.80;101411.81;10389756;28;20071;-77
2022/08/13 10:12:59;;;;;;;10.52;1.58;;;;;;;39.32;16.37;101411.00;10428887;28;20116;-77
2022/08/13 10:18:02;;;;;;;5.50;1.92;;;;;;;38.45;17.92;101398.25;10446656;28;20160;-76
2022/08/13 10:23:04;;;;;;;3.00;1.13;;;;;;;37.41;17.85;101404.31;10429995;28;20056;-76
2022/08/13 10:28:22;;;;;;;3.20;1.30;;;;;;;37.08;17.17;101405.28;10448546;28;20041;-77
2022/08/13 10:33:23;;;;;;;3.63;1.40;;;;;;;37.39;16.91;101391.75;10406776;28;20037;-77
2022/08/13 10:38:26;;;;;;;2.25;1.38;;;;;;;37.23;16.98;101386.28;10407922;28;20057;-78
2022/08/13 10:43:27;;;;;;;2.50;1.42;;;;;;;36.89;17.44;101381.72;10407437;28;20125;-79
2022/08/13 10:48:28;;;;;;;4.20;0.95;;;;;;;37.26;16.10;101386.09;10381094;28;20381;-78
2022/08/13 10:58:49;;;;;;;6.80;1.60;;;;;;;37.88;15.47;101385.25;10406690;28;20033;-77
2022/08/13 11:03:52;;;;;;;4.03;1.52;;;;;;;38.12;15.68;101388.38;10406183;28;20033;-78
2022/08/13 11:08:54;;;;;;;1.63;1.17;;;;;;;38.10;16.31;101375.78;10405595;28;20450;-78
2022/08/13 11:13:55;;;;;;;3.38;1.38;;;;;;;37.90;17.01;101376.00;10404941;28;20059;-78
2022/08/13 11:18:55;;;;;;;1.88;1.15;;;;;;;37.89;17.37;101359.69;10405281;28;20512;-78
2022/08/13 11:23:56;;;;;;;3.22;1.90;;;;;;;38.10;15.85;101360.28;10405733;28;20124;-77
2022/08/13 11:28:57;;;;;;;6.88;1.75;;;;;;;38.30;16.60;101358.16;10404144;28;20041;-78
2022/08/13 11:33:58;;;;;;;3.47;1.15;;;;;;;37.18;17.70;101354.69;10395254;28;20132;-75
2022/08/13 11:38:59;;;;;;;4.47;1.48;;;;;;;36.99;18.23;101353.97;10402283;28;20492;-77
2022/08/13 11:44:00;;;;;;;3.17;1.80;;;;;;;37.96;16.08;101354.78;10415262;28;20041;-77
2022/08/13 11:49:01;;;;;;;3.17;1.80;;;;;;;38.05;16.69;101341.44;10384845;28;20136;-76
2022/08/13 11:54:01;;;;;;;3.72;1.10;;;;;;;37.87;17.28;101342.53;10395964;28;20644;-77
2022/08/13 11:59:03;;;;;;;2.53;2.08;;;;;;;36.74;17.09;101339.84;10384497;28;20113;-77
2022/08/13 12:04:04;;;;;;;4.15;1.65;;;;;;;37.01;17.62;101338.41;10369762;28;20053;-77
2022/08/13 12:09:04;;;;;;;5.65;1.40;;;;;;;36.66;18.64;101347.56;10367743;28;20033;-75
2022/08/13 12:14:05;;;;;;;2.95;1.50;;;;;;;37.21;16.58;101345.44;10386055;28;20039;-75
2022/08/13 12:19:05;;;;;;;2.80;1.52;;;;;;;37.82;16.48;101333.72;10383055;28;20036;-77
2022/08/13 12:24:06;;;;;;;6.40;1.67;;;;;;;37.95;16.63;101328.44;10403283;28;20478;-76
2022/08/13 12:29:07;;;;;;;3.80;2.00;;;;;;;38.17;16.45;101323.41;10426796;28;20040;-76
2022/08/13 12:34:07;;;;;;;5.25;1.70;;;;;;;37.56;16.43;101317.97;10444129;28;20047;-75
2022/08/13 12:39:08;;;;;;;2.28;1.50;;;;;;;37.62;16.91;101305.78;10442907;28;20511;-76
2022/08/13 12:44:09;;;;;;;1.50;1.38;;;;;;;37.11;16.79;101308.75;10442920;28;20400;-76
2022/08/13 12:49:10;;;;;;;6.43;1.75;;;;;;;37.98;16.62;101304.53;10410229;28;20041;-75
2022/08/13 12:54:10;;;;;;;3.90;1.58;;;;;;;37.03;17.86;101301.91;10424339;28;20112;-76
2022/08/13 12:59:11;;;;;;;2.80;1.70;;;;;;;35.77;18.65;101295.97;10424723;28;20047;-77
2022/08/13 13:04:11;;;;;;;5.70;1.90;;;;;;;36.44;18.08;101302.41;10443484;28;20029;-76
2022/08/13 13:09:12;;;;;;;3.13;1.75;;;;;;;36.28;17.08;101285.13;10424559;28;20036;-76
2022/08/13 13:14:12;;;;;;;6.32;1.88;;;;;;;36.66;16.34;101281.25;10424748;28;20041;-76
2022/08/13 13:19:13;;;;;;;3.90;1.60;;;;;;;38.17;15.31;101278.81;10407515;28;20060;-76
2022/08/13 13:24:13;;;;;;;2.72;1.88;;;;;;;37.54;15.60;101278.97;10443104;28;20068;-78
2022/08/13 13:29:14;;;;;;;4.30;1.67;;;;;;;38.17;16.17;101270.59;10408071;28;20044;-76
2022/08/13 13:34:16;;;;;;;4.38;2.03;;;;;;;37.94;15.75;101275.66;10424036;28;20473;-76
2022/08/13 13:39:16;;;;;;;2.00;1.38;;;;;;;37.08;16.24;101271.63;10424405;28;20124;-76
2022/08/13 13:44:17;;;;;;;3.10;1.35;;;;;;;36.82;16.79;101265.78;10423514;28;20393;-76
2022/08/13 13:49:17;;;;;;;1.40;1.17;;;;;;;37.51;16.92;101251.84;10423295;28;20064;-76
2022/08/13 13:54:19;;;;;;;1.55;1.45;;;;;;;37.61;16.70;101252.16;10423833;28;20041;-77
2022/08/13 13:59:20;;;;;;;3.92;1.45;;;;;;;37.14;16.80;101243.97;10441563;28;20048;-77
2022/08/13 14:04:20;;;;;;;4.82;2.08;;;;;;;37.59;15.81;101235.00;10441180;28;20453;-75
2022/08/13 14:09:21;;;;;;;2.10;1.73;;;;;;;37.41;18.08;101246.03;10440976;28;20135;-77
2022/08/13 14:14:22;;;;;;;1.75;1.55;;;;;;;37.61;15.74;101233.03;10423916;28;20128;-76
2022/08/13 14:19:22;;;;;;;2.05;1.48;;;;;;;38.21;16.64;101222.97;10422938;28;20407;-78
2022/08/13 14:24:24;;;;;;;2.55;1.65;;;;;;;37.61;17.31;101216.66;10423288;28;20037;-76
2022/08/13 14:29:24;;;;;;;6.75;2.05;;;;;;;37.43;16.55;101202.28;10423193;28;20559;-76
2022/08/13 14:34:25;;;;;;;3.22;1.55;;;;;;;36.85;17.51;101197.44;10423473;28;20033;-76
2022/08/13 14:39:25;;;;;;;5.05;1.55;;;;;;;36.32;18.16;101201.38;10381971;28;20043;-76
2022/08/13 14:44:26;;;;;;;3.15;2.13;;;;;;;36.95;17.83;101196.91;10400340;28;20041;-76
2022/08/13 14:49:27;;;;;;;5.30;2.67;;;;;;;36.26;18.63;101194.44;10398693;28;20041;-76
2022/08/13 14:54:27;;;;;;;4.07;2.00;;;;;;;36.24;18.22;101183.63;10398787;28;20108;-76
2022/08/13 14:59:28;;;;;;;2.65;1.45;;;;;;;36.49;18.05;101189.56;10403211;28;20557;-75
2022/08/13 15:04:28;;;;;;;3.03;1.67;;;;;;;36.20;20.03;101173.00;10406199;28;20044;-74
2022/08/13 15:09:29;;;;;;;4.97;1.83;;;;;;;35.88;18.93;101171.03;10404545;28;20037;-74
2022/08/13 15:14:29;;;;;;;35.42;4.38;;;;;;;35.33;19.75;101161.25;10404591;28;20041;-76
2022/08/13 15:19:30;;;;;;;6.50;1.77;;;;;;;35.19;19.22;101159.25;10387131;28;20044;-76
2022/08/13 15:24:32;;;;;;;2.45;1.83;;;;;;;34.82;22.09;101141.09;10386181;28;20045;-76
2022/08/13 15:29:33;;;;;;;2.78;1.50;;;;;;;34.77;20.51;101128.72;10403680;28;20038;-76
2022/08/13 15:34:35;;;;;;;5.15;3.42;;;;;;;34.27;21.58;101128.38;10374391;28;20044;-77
2022/08/13 15:39:35;;;;;;;4.53;1.65;;;;;;;33.41;21.90;101131.38;10401333;28;20549;-75
2022/08/13 15:44:36;;;;;;;;;;;;;;;31.89;23.74;101126.66;10402280;28;20129;-76
2022/08/13 15:49:39;;;;;;;4.47;1.83;;;;;;;30.99;25.14;101119.84;10399613;28;20004;-77
2022/08/13 15:54:46;;;;;;;4.35;2.00;;;;;;;30.70;24.51;101108.19;10401531;28;20037;-79
2022/08/13 15:59:46;;;;;;;3.67;2.38;;;;;;;30.58;25.13;101105.88;10385828;28;20037;-76
2022/08/13 16:04:49;;;;;;;4.28;2.88;;;;;;;30.36;25.43;101097.59;10400538;28;20044;-76
2022/08/13 16:09:49;;;;;;;4.63;3.90;;;;;;;30.32;26.09;101086.88;10384338;28;20107;-75
2022/08/13 16:14:50;;;;;;;5.27;2.37;;;;;;;30.35;27.05;101085.88;10402458;28;20570;-75
2022/08/13 16:19:51;;;;;;;4.30;2.70;;;;;;;30.20;27.25;101072.88;10403009;28;20786;-75
2022/08/13 16:24:54;;;;;;;8.80;2.50;;;;;;;30.00;26.83;101075.28;10385337;28;20134;-76
2022/08/13 16:29:55;;;;;;;3.25;2.45;;;;;;;29.87;26.97;101063.06;10400574;28;20087;-74
2022/08/13 16:34:56;;;;;;;4.93;2.28;;;;;;;29.70;26.81;101063.56;10386525;28;20040;-74
2022/08/13 16:39:59;;;;;;;3.05;2.50;;;;;;;29.66;26.49;101061.88;10441018;28;20052;-74
2022/08/13 16:45:00;;;;;;;3.95;2.22;;;;;;;29.45;26.97;101051.69;10424907;28;20091;-74
2022/08/13 16:50:00;;;;;;;;;;;;;;;29.30;27.95;101052.94;10425331;28;20041;-74
2022/08/13 16:55:01;;;;;;;2.80;2.13;;;;;;;29.11;27.80;101052.59;10425357;28;20353;-74
2022/08/13 17:00:02;;;;;;;19.23;15.30;;;;;;;28.92;31.65;101045.91;10424209;28;20124;-76
2022/08/13 17:10:21;;;;;;;6.13;2.30;;;;;;;28.65;28.42;101035.78;10428037;28;20041;-75
2022/08/13 17:15:22;;;;;;;4.57;2.10;;;;;;;28.49;29.53;101023.63;10423315;28;20045;-75
2022/08/13 17:20:26;;;;;;;7.07;2.40;;;;;;;28.31;30.28;101024.97;10439234;28;20045;-74
2022/08/13 17:25:30;;;;;;;4.93;2.33;;;;;;;28.01;34.90;101024.72;10406837;28;20049;-74
2022/08/13 17:30:31;;;;;;;5.25;1.98;;;;;;;27.74;31.71;101016.38;10441565;28;20033;-74
2022/08/13 17:35:31;;;;;;;5.17;2.40;;;;;;;27.42;34.10;101029.50;10420932;28;20392;-74
2022/08/13 17:40:32;;;;;;;5.33;2.43;;;;;;;27.07;37.33;101031.97;10440196;28;20041;-75
2022/08/13 17:45:33;;;;;;;10.87;2.63;;;;;;;26.64;39.48;101024.66;10423655;28;20082;-75
2022/08/13 17:50:33;;;;;;;3.60;2.57;;;;;;;26.25;38.69;101027.94;10422512;28;20192;-74
2022/08/13 17:55:34;;;;;;;9.80;3.63;;;;;;;26.03;40.40;101030.03;10422588;28;20124;-75
2022/08/13 18:00:35;;;;;;;4.90;2.20;;;;;;;25.72;42.93;101033.13;10422839;28;20057;-74
2022/08/13 18:05:36;;;;;;;4.72;2.30;;;;;;;25.14;44.83;101036.41;10422893;28;20383;-74
2022/08/13 18:10:37;;;;;;;5.13;2.47;;;;;;;24.77;45.04;101039.44;10437822;28;20041;-74
2022/08/13 18:15:37;;;;;;;114.30;90.97;;;;;;;24.43;43.72;101035.22;10440126;28;20502;-75
2022/08/13 18:20:38;;;;;;;18.30;13.50;;;;;;;24.20;47.32;101032.69;10423191;28;20520;-74
2022/08/13 18:25:38;;;;;;;5.50;3.53;;;;;;;23.90;47.42;101040.88;10440711;28;20076;-74
2022/08/13 18:30:39;;;;;;;3.57;2.10;;;;;;;23.62;45.50;101040.09;10405313;28;20120;-75
2022/08/13 18:35:39;;;;;;;2.80;2.50;;;;;;;23.43;45.76;101045.47;10427852;28;20047;-75
2022/08/13 18:40:40;;;;;;;24.70;19.27;;;;;;;23.18;45.85;101042.84;10429806;28;20065;-76
2022/08/13 18:45:40;;;;;;;8.03;3.73;;;;;;;22.92;45.95;101048.22;10429998;28;20049;-75
2022/08/13 18:50:41;;;;;;;4.93;2.60;;;;;;;22.71;47.33;101043.78;10445817;28;20036;-74
2022/08/13 18:55:42;;;;;;;5.00;2.45;;;;;;;22.41;48.13;101050.81;10396191;28;20037;-75
2022/08/13 19:00:45;;;;;;;5.10;3.10;;;;;;;22.11;48.58;101052.53;10427648;28;20570;-75
2022/08/13 19:05:46;;;;;;;4.90;3.25;;;;;;;21.88;49.14;101065.81;10410083;28;20494;-74
2022/08/13 19:10:46;;;;;;;5.90;3.20;;;;;;;21.65;49.66;101059.47;10426772;28;20044;-77
2022/08/13 19:15:47;;;;;;;10.80;7.55;;;;;;;21.35;50.58;101061.06;10412041;28;20485;-75
2022/08/13 19:20:47;;;;;;;5.70;2.85;;;;;;;21.04;51.76;101057.31;10425554;28;20048;-76
2022/08/13 19:25:48;;;;;;;3.55;2.55;;;;;;;20.80;53.14;101059.78;10424697;28;20124;-76
2022/08/13 19:30:49;;;;;;;3.20;2.08;;;;;;;20.63;53.00;101059.63;10428995;28;20036;-77
2022/08/13 19:35:50;;;;;;;6.15;2.90;;;;;;;20.45;53.31;101051.47;10427288;28;20106;-76
2022/08/13 19:40:50;;;;;;;6.25;2.53;;;;;;;20.32;54.07;101054.00;10427426;28;20044;-76
2022/08/13 19:45:51;;;;;;;3.65;2.55;;;;;;;20.13;54.39;101062.66;10402868;28;20037;-76
2022/08/13 19:50:52;;;;;;;6.63;3.28;;;;;;;19.93;55.07;101069.50;10404330;28;20048;-77
2022/08/13 19:55:52;;;;;;;5.53;3.10;;;;;;;19.74;55.25;101064.78;10402807;28;20124;-77
2022/08/13 20:00:53;;;;;;;4.65;3.45;;;;;;;19.61;55.85;101064.63;10404091;28;20041;-77
2022/08/13 20:05:54;;;;;;;7.70;3.47;;;;;;;19.51;56.88;101068.94;10386517;28;20064;-77
2022/08/13 20:10:54;;;;;;;4.05;3.08;;;;;;;19.34;57.21;101070.44;10404588;28;20044;-77
2022/08/13 20:15:55;;;;;;;10.45;3.42;;;;;;;19.24;57.34;101068.53;10402076;28;20041;-76
2022/08/13 20:20:55;;;;;;;7.40;4.20;;;;;;;19.15;58.16;101058.66;10404523;28;20171;-76
2022/08/13 20:25:56;;;;;;;6.97;3.83;;;;;;;19.03;58.38;101057.59;10404999;28;20537;-75
2022/08/13 20:30:56;;;;;;;5.47;3.30;;;;;;;18.98;59.12;101061.94;10401762;28;20072;-74
2022/08/13 20:35:57;;;;;;;5.13;3.30;;;;;;;18.97;59.07;101060.16;10403232;28;20050;-75
2022/08/13 20:40:57;;;;;;;5.45;3.80;;;;;;;18.88;59.57;101058.22;10403197;28;20042;-76
2022/08/13 20:45:58;;;;;;;16.50;4.93;;;;;;;18.84;60.20;101061.69;10401471;28;24738;-75
2022/08/13 20:51:00;;;;;;;13.25;3.90;;;;;;;18.81;60.88;101066.03;10401776;28;20033;-74
2022/08/13 20:56:00;;;;;;;7.50;4.43;;;;;;;18.73;60.88;101061.50;10400222;28;20048;-74
2022/08/13 21:01:01;;;;;;;7.75;3.97;;;;;;;18.66;61.04;101056.06;10404187;28;20079;-75
2022/08/13 21:06:01;;;;;;;7.15;4.03;;;;;;;18.61;61.55;101055.97;10402766;28;20116;-75
2022/08/13 21:11:02;;;;;;;6.53;4.63;;;;;;;18.52;61.85;101054.06;10402394;28;20080;-75
2022/08/13 21:16:03;;;;;;;5.78;4.07;;;;;;;18.41;61.76;101045.91;10359270;28;20474;-74
2022/08/13 21:21:03;;;;;;;5.85;4.00;;;;;;;18.34;62.24;101041.38;10390846;28;20106;-74
2022/08/13 21:26:04;;;;;;;7.70;4.68;;;;;;;18.25;62.39;101046.50;10401565;28;20037;-75
2022/08/13 21:31:04;;;;;;;8.05;4.50;;;;;;;18.24;63.06;101045.63;10402003;28;20444;-75
2022/08/13 21:36:05;;;;;;;6.55;5.15;;;;;;;18.15;62.97;101034.84;10399488;28;20064;-74
2022/08/13 21:41:06;;;;;;;6.38;4.38;;;;;;;18.09;63.23;101040.03;10399667;28;20133;-75
2022/08/13 21:46:06;;;;;;;8.27;4.93;;;;;;;18.12;63.28;101038.31;10399219;28;20076;-75
2022/08/13 21:51:07;;;;;;;5.07;4.55;;;;;;;18.06;63.55;101040.84;10401509;28;20041;-74
2022/08/13 21:56:08;;;;;;;6.22;3.75;;;;;;;17.90;63.92;101040.50;10399122;28;20042;-75
2022/08/13 22:01:08;;;;;;;6.80;4.47;;;;;;;17.74;64.12;101038.41;10399256;28;20124;-76
2022/08/13 22:06:09;;;;;;;5.80;4.57;;;;;;;17.63;65.02;101027.59;10403980;28;20120;-75
2022/08/13 22:11:09;;;;;;;5.13;3.95;;;;;;;17.54;65.08;101030.06;10409601;28;20042;-75
2022/08/13 22:16:10;;;;;;;8.00;4.25;;;;;;;17.39;65.30;101034.16;10404684;28;20044;-75
2022/08/13 22:21:10;;;;;;;5.20;4.15;;;;;;;17.33;66.94;101026.09;10407178;28;20029;-75
2022/08/13 22:26:11;;;;;;;5.90;4.47;;;;;;;17.29;67.27;101040.97;10404876;28;20057;-76
2022/08/13 22:31:14;;;;;;;6.90;4.90;;;;;;;17.18;67.25;101037.19;10406525;28;20073;-75
2022/08/13 22:36:15;;;;;;;7.53;5.32;;;;;;;17.10;68.59;101029.09;10406416;28;20064;-75
2022/08/13 22:41:15;;;;;;;5.30;4.80;;;;;;;16.98;68.60;101024.41;10390580;28;20040;-74
2022/08/13 22:46:16;;;;;;;16.67;5.75;;;;;;;16.87;69.47;101033.78;10402753;28;20099;-75
2022/08/13 22:51:17;;;;;;;7.60;4.80;;;;;;;16.76;68.81;101028.25;10406348;28;20037;-74
2022/08/13 22:56:17;;;;;;;6.22;5.30;;;;;;;16.71;68.40;101030.75;10381691;28;20388;-75
2022/08/13 23:01:18;;;;;;;6.10;5.22;;;;;;;16.78;68.78;101017.69;10388981;28;20581;-75
2022/08/13 23:06:19;;;;;;;8.27;5.22;;;;;;;16.73;69.32;101020.25;10405982;28;20033;-75
2022/08/13 23:11:22;;;;;;;7.00;4.88;;;;;;;16.62;69.81;101009.38;10405523;28;20025;-75
2022/08/13 23:16:25;;;;;;;;;;;;;;;16.56;69.30;101010.16;10389505;28;20497;-74
2022/08/13 23:21:26;;;;;;;7.38;5.45;;;;;;;16.50;70.22;101003.78;10445091;28;19917;-74
2022/08/13 23:26:26;;;;;;;7.43;5.70;;;;;;;16.49;69.47;100996.72;10411518;28;20117;-74
2022/08/13 23:31:29;;;;;;;13.40;5.22;;;;;;;16.44;69.88;100984.28;10395584;28;20114;-74
2022/08/13 23:36:29;;;;;;;9.02;6.32;;;;;;;16.33;70.31;100982.25;10427950;28;20045;-74
2022/08/13 23:41:30;;;;;;;8.52;5.68;;;;;;;16.20;70.49;100994.22;10428087;28;20127;-74
2022/08/13 23:46:30;;;;;;;6.10;5.03;;;;;;;16.09;71.12;100972.81;10427566;28;20112;-75